Time;durP1;ratioP1;P1;durP2;ratioP2;P2;SDS_P1;SDS_P2;PMS_P1;PMS_P2;Temp;Humidity;BMP_temperature;BMP_pressure;BME280_temperature;BME280_humidity;BME280_pressure;Samples;Min_cycle;Max_cycle;Signal;HPM_P1;HPM_P2
2022/04/04 00:01:16;;;;;;;14.77;9.87;;;0.70;99.90;;;;;;5085288;28;20194;-71
2022/04/04 00:03:43;;;;;;;15.17;9.67;;;0.60;99.90;;;;;;5089127;28;20200;-70
2022/04/04 00:06:10;;;;;;;14.90;9.53;;;0.70;99.90;;;;;;5086101;28;20217;-73
2022/04/04 00:08:37;;;;;;;14.63;9.27;;;0.70;99.90;;;;;;5086658;28;20209;-69
2022/04/04 00:11:04;;;;;;;14.30;9.50;;;0.70;99.90;;;;;;5092236;28;20212;-70
2022/04/04 00:13:31;;;;;;;15.63;9.93;;;0.70;99.90;;;;;;5086439;28;20213;-72
2022/04/04 00:15:57;;;;;;;16.03;9.70;;;0.80;99.90;;;;;;5081584;28;20221;-69
2022/04/04 00:18:24;;;;;;;15.53;10.13;;;0.70;99.90;;;;;;5089363;28;20693;-70
2022/04/04 00:20:51;;;;;;;15.47;10.87;;;0.70;99.90;;;;;;5083503;28;20208;-71
2022/04/04 00:23:18;;;;;;;17.53;9.20;;;0.80;99.90;;;;;;5081625;28;20185;-70
2022/04/04 00:25:47;;;;;;;15.33;10.37;;;0.70;99.90;;;;;;5083488;28;20218;-69
2022/04/04 00:28:15;;;;;;;16.60;10.63;;;0.60;99.90;;;;;;5084220;28;20201;-70
2022/04/04 00:30:42;;;;;;;15.10;10.03;;;0.60;99.90;;;;;;5083768;28;20190;-72
2022/04/04 00:33:09;;;;;;;15.83;10.50;;;0.50;99.90;;;;;;5089099;28;20189;-69
2022/04/04 00:35:36;;;;;;;17.13;10.90;;;0.60;99.90;;;;;;5087477;28;20267;-70
2022/04/04 00:38:04;;;;;;;18.13;11.10;;;0.70;99.90;;;;;;5087745;28;20199;-69
2022/04/04 00:40:31;;;;;;;16.73;10.47;;;0.80;99.90;;;;;;5077616;28;20214;-70
2022/04/04 00:42:58;;;;;;;15.13;10.20;;;0.70;99.90;;;;;;5092334;28;20189;-71
2022/04/04 00:45:24;;;;;;;15.07;9.70;;;0.60;99.90;;;;;;5084617;28;20224;-71
2022/04/04 00:47:51;;;;;;;16.33;9.67;;;0.60;99.90;;;;;;5079665;28;20201;-70
2022/04/04 00:50:18;;;;;;;16.87;10.50;;;0.50;99.90;;;;;;5083858;28;20554;-69
2022/04/04 00:52:45;;;;;;;15.10;9.70;;;0.50;99.90;;;;;;5088230;28;20198;-69
2022/04/04 00:55:12;;;;;;;17.50;10.43;;;0.50;99.90;;;;;;5087597;28;20215;-71
2022/04/04 00:57:39;;;;;;;16.47;10.03;;;0.50;99.90;;;;;;5091762;28;20190;-70
2022/04/04 01:00:11;;;;;;;16.10;9.77;;;0.40;99.90;;;;;;5079978;28;20206;-70
2022/04/04 01:02:39;;;;;;;15.80;10.40;;;0.40;99.90;;;;;;5093767;28;20223;-70
2022/04/04 01:05:07;;;;;;;16.83;10.40;;;0.40;99.90;;;;;;5091045;28;20188;-71
2022/04/04 01:07:37;;;;;;;17.30;10.43;;;0.40;99.90;;;;;;5082976;28;20226;-70
2022/04/04 01:10:06;;;;;;;15.17;10.50;;;0.50;99.90;;;;;;5083376;28;20238;-70
2022/04/04 01:12:34;;;;;;;17.77;10.80;;;0.60;99.90;;;;;;5092252;28;20552;-70
2022/04/04 01:15:01;;;;;;;17.27;11.27;;;0.60;99.90;;;;;;5088980;28;20238;-70
2022/04/04 01:17:28;;;;;;;17.63;11.23;;;0.60;99.90;;;;;;5078735;28;20768;-70
2022/04/04 01:19:58;;;;;;;18.93;11.00;;;0.60;99.90;;;;;;5073952;28;20201;-72
2022/04/04 01:22:24;;;;;;;18.33;11.80;;;0.60;99.90;;;;;;5086889;28;20658;-72
2022/04/04 01:24:51;;;;;;;18.33;11.27;;;0.60;99.90;;;;;;5084026;28;20201;-70
2022/04/04 01:27:18;;;;;;;16.63;10.87;;;0.60;99.90;;;;;;5082845;28;20750;-70
2022/04/04 01:29:45;;;;;;;16.70;11.17;;;0.60;99.90;;;;;;5092715;28;20292;-70
2022/04/04 01:32:12;;;;;;;17.83;12.17;;;0.50;99.90;;;;;;5088481;28;20231;-68
2022/04/04 01:34:39;;;;;;;18.43;11.20;;;0.50;99.90;;;;;;5088188;28;20209;-71
2022/04/04 01:37:06;;;;;;;21.07;11.87;;;0.60;99.90;;;;;;5086644;28;20712;-70
2022/04/04 01:39:33;;;;;;;20.53;12.17;;;0.70;99.90;;;;;;5085728;28;20209;-70
2022/04/04 01:41:59;;;;;;;18.90;11.40;;;0.80;99.90;;;;;;5093805;28;20200;-72
2022/04/04 01:44:26;;;;;;;18.13;11.30;;;0.80;99.90;;;;;;5084789;28;20194;-71
2022/04/04 01:46:53;;;;;;;19.17;12.13;;;0.80;99.90;;;;;;5093283;28;20226;-69
2022/04/04 01:49:19;;;;;;;18.93;11.80;;;0.70;99.90;;;;;;5091233;28;20211;-72
2022/04/04 01:51:46;;;;;;;16.23;11.07;;;0.70;99.90;;;;;;5088520;28;20680;-69
2022/04/04 01:54:13;;;;;;;18.73;11.73;;;0.80;99.90;;;;;;5084083;28;20204;-70
2022/04/04 01:56:41;;;;;;;18.70;11.47;;;0.80;99.90;;;;;;5087849;28;20636;-71
2022/04/04 01:59:08;;;;;;;15.47;10.23;;;0.80;99.90;;;;;;5086894;28;20219;-70
2022/04/04 02:01:35;;;;;;;19.13;11.07;;;0.90;99.90;;;;;;5084489;28;20190;-70
2022/04/04 02:04:03;;;;;;;16.47;10.63;;;1.00;99.90;;;;;;5083154;28;20192;-71
2022/04/04 02:06:30;;;;;;;16.80;10.77;;;0.90;99.90;;;;;;5087448;28;20248;-70
2022/04/04 02:08:56;;;;;;;16.77;9.83;;;1.00;99.90;;;;;;5089555;28;20206;-70
2022/04/04 02:11:23;;;;;;;15.90;9.60;;;1.00;99.90;;;;;;5086086;28;20199;-71
2022/04/04 02:13:50;;;;;;;15.80;10.13;;;1.10;99.90;;;;;;5094111;28;20208;-70
2022/04/04 02:16:17;;;;;;;15.43;10.47;;;1.00;99.90;;;;;;5085948;28;20224;-70
2022/04/04 02:18:44;;;;;;;16.43;9.97;;;1.00;99.90;;;;;;5093598;28;20610;-70
2022/04/04 02:21:11;;;;;;;16.33;10.10;;;1.00;99.90;;;;;;5088675;28;20206;-70
2022/04/04 02:23:38;;;;;;;15.67;9.77;;;1.00;99.90;;;;;;5086456;28;20194;-70
2022/04/04 02:26:04;;;;;;;14.43;9.07;;;1.10;99.90;;;;;;5084442;28;20218;-71
2022/04/04 02:28:31;;;;;;;16.00;10.27;;;1.10;99.90;;;;;;5085321;28;20198;-69
2022/04/04 02:30:58;;;;;;;14.83;9.90;;;1.10;99.90;;;;;;5092635;28;20189;-71
2022/04/04 02:33:26;;;;;;;14.43;9.57;;;1.20;99.90;;;;;;5084525;28;20251;-70
2022/04/04 02:35:53;;;;;;;15.37;10.07;;;1.20;99.90;;;;;;5086941;28;20218;-70
2022/04/04 02:38:23;;;;;;;15.40;9.80;;;1.20;99.90;;;;;;5089291;28;20206;-70
2022/04/04 02:40:51;;;;;;;15.23;10.00;;;1.20;99.90;;;;;;5084321;28;20824;-69
2022/04/04 02:43:18;;;;;;;15.23;10.07;;;1.20;99.90;;;;;;5095332;28;20200;-70
2022/04/04 02:45:46;;;;;;;14.10;9.57;;;1.20;99.90;;;;;;5094022;28;20588;-70
2022/04/04 02:48:15;;;;;;;16.27;10.13;;;1.30;99.90;;;;;;5088644;28;20360;-72
2022/04/04 02:50:43;;;;;;;16.40;10.40;;;1.30;99.90;;;;;;5069883;28;20196;-70
2022/04/04 02:53:11;;;;;;;17.00;9.80;;;1.40;99.90;;;;;;5086166;28;20199;-70
2022/04/04 02:58:22;;;;;;;15.37;10.13;;;1.50;99.90;;;;;;5094820;28;20250;-68
2022/04/04 03:00:49;;;;;;;15.07;10.13;;;1.60;99.90;;;;;;5086446;28;20209;-70
2022/04/04 03:03:16;;;;;;;15.50;10.30;;;1.60;99.90;;;;;;5070654;28;20189;-70
2022/04/04 03:05:43;;;;;;;16.00;10.37;;;1.70;99.90;;;;;;5087625;28;20214;-72
2022/04/04 03:08:10;;;;;;;15.87;10.77;;;1.80;99.90;;;;;;5094566;28;20690;-70
2022/04/04 03:10:38;;;;;;;16.17;10.50;;;1.70;99.90;;;;;;5092712;28;20527;-69
2022/04/04 03:13:05;;;;;;;13.73;9.30;;;1.70;99.90;;;;;;5090813;28;20264;-70
2022/04/04 03:15:36;;;;;;;15.57;10.13;;;1.70;99.90;;;;;;5091219;28;20248;-70
2022/04/04 03:18:04;;;;;;;13.80;9.50;;;1.60;99.90;;;;;;5089565;28;20220;-70
2022/04/04 03:20:32;;;;;;;13.87;8.63;;;1.70;99.90;;;;;;5085257;28;20234;-70
2022/04/04 03:22:59;;;;;;;11.67;8.20;;;1.70;99.90;;;;;;5090929;28;20214;-71
2022/04/04 03:25:25;;;;;;;13.40;8.27;;;1.70;99.90;;;;;;5089633;28;20224;-70
2022/04/04 03:27:53;;;;;;;13.97;8.43;;;1.70;99.90;;;;;;5094260;28;20199;-71
2022/04/04 03:30:26;;;;;;;13.90;8.50;;;1.80;99.90;;;;;;5090897;28;20209;-72
2022/04/04 03:32:57;;;;;;;13.40;8.77;;;1.80;99.90;;;;;;5091136;28;20206;-70
2022/04/04 03:35:26;;;;;;;12.53;8.50;;;1.70;99.90;;;;;;5084575;28;20565;-70
2022/04/04 03:37:55;;;;;;;11.37;7.63;;;1.80;99.90;;;;;;5094440;28;20231;-70
2022/04/04 03:40:22;;;;;;;12.23;8.37;;;1.70;99.90;;;;;;5094126;28;20611;-70
2022/04/04 03:42:52;;;;;;;11.77;8.77;;;1.70;99.90;;;;;;5091763;28;20198;-70
2022/04/04 03:45:20;;;;;;;14.20;7.80;;;1.70;99.90;;;;;;5094640;28;20222;-70
2022/04/04 03:47:48;;;;;;;12.17;7.90;;;1.70;99.90;;;;;;5092135;28;20263;-72
2022/04/04 03:50:16;;;;;;;10.00;8.00;;;1.70;99.90;;;;;;5090913;28;20210;-72
2022/04/04 03:52:47;;;;;;;12.50;8.23;;;1.60;99.90;;;;;;5090496;28;20200;-70
2022/04/04 03:55:16;;;;;;;13.23;8.47;;;1.70;99.90;;;;;;5090635;28;20635;-69
2022/04/04 03:57:44;;;;;;;12.27;7.97;;;1.70;99.90;;;;;;5086176;28;20302;-72
2022/04/04 04:00:12;;;;;;;12.87;8.10;;;1.60;99.90;;;;;;5073809;28;20198;-70
2022/04/04 04:02:39;;;;;;;11.47;8.00;;;1.60;99.90;;;;;;5090624;28;20191;-69
2022/04/04 04:05:11;;;;;;;11.53;8.17;;;1.60;99.90;;;;;;5086663;28;20210;-70
2022/04/04 04:07:38;;;;;;;10.87;7.60;;;1.70;99.90;;;;;;5082595;28;20669;-70
2022/04/04 04:10:05;;;;;;;11.77;7.93;;;1.70;99.90;;;;;;5083851;28;20210;-70
2022/04/04 04:12:32;;;;;;;10.90;8.20;;;1.70;99.90;;;;;;5085236;28;20198;-72
2022/04/04 04:14:59;;;;;;;11.30;8.07;;;1.60;99.90;;;;;;5090318;28;20194;-71
2022/04/04 04:17:26;;;;;;;12.97;8.80;;;1.50;99.90;;;;;;5086838;28;20213;-70
2022/04/04 04:22:38;;;;;;;13.80;8.17;;;1.50;99.90;;;;;;5084591;28;20566;-71
2022/04/04 04:25:08;;;;;;;15.60;9.37;;;1.40;99.90;;;;;;5090176;28;20260;-72
2022/04/04 04:27:34;;;;;;;13.40;9.03;;;1.40;99.90;;;;;;5085696;28;20195;-70
2022/04/04 04:30:03;;;;;;;15.07;9.23;;;1.20;99.90;;;;;;5084386;28;20718;-70
2022/04/04 04:32:30;;;;;;;13.07;8.97;;;1.20;99.90;;;;;;5084280;28;20199;-71
2022/04/04 04:34:57;;;;;;;12.60;8.83;;;1.00;99.90;;;;;;5084639;28;20202;-71
2022/04/04 04:37:24;;;;;;;12.17;8.77;;;0.90;99.90;;;;;;5081224;28;20213;-71
2022/04/04 04:39:50;;;;;;;15.90;9.00;;;0.80;99.90;;;;;;5074445;28;20201;-70
2022/04/04 04:42:17;;;;;;;13.53;8.90;;;0.70;99.90;;;;;;5091126;28;20208;-70
2022/04/04 04:44:45;;;;;;;15.60;9.83;;;0.70;99.90;;;;;;5085581;28;20193;-70
2022/04/04 04:47:12;;;;;;;13.33;8.87;;;0.60;99.90;;;;;;5077221;28;20219;-71
2022/04/04 04:49:38;;;;;;;14.00;9.07;;;0.50;99.90;;;;;;5092362;28;20190;-69
2022/04/04 04:52:06;;;;;;;13.57;8.63;;;0.50;99.90;;;;;;5090151;28;20333;-72
2022/04/04 04:54:34;;;;;;;14.60;8.73;;;0.50;99.90;;;;;;5067351;28;20251;-70
2022/04/04 04:57:01;;;;;;;12.30;9.07;;;0.50;99.90;;;;;;5085290;28;20866;-70
2022/04/04 04:59:28;;;;;;;14.00;9.10;;;0.50;99.90;;;;;;5090934;28;20282;-70
2022/04/04 05:01:55;;;;;;;14.33;9.63;;;0.60;99.90;;;;;;5080501;28;20195;-70
2022/04/04 05:04:21;;;;;;;14.67;9.20;;;0.80;99.90;;;;;;5088924;28;20198;-70
2022/04/04 05:06:49;;;;;;;15.47;9.30;;;0.80;99.90;;;;;;5085378;28;20218;-72
2022/04/04 05:09:17;;;;;;;13.53;8.67;;;0.70;99.90;;;;;;5092719;28;20281;-73
2022/04/04 05:11:44;;;;;;;13.53;9.20;;;0.60;99.90;;;;;;5091986;28;20657;-71
2022/04/04 05:14:17;;;;;;;15.70;9.07;;;0.50;99.90;;;;;;5093729;28;20193;-71
2022/04/04 05:16:45;;;;;;;13.87;9.10;;;0.60;99.90;;;;;;5090567;28;20651;-70
2022/04/04 05:19:13;;;;;;;15.10;9.60;;;0.50;99.90;;;;;;5090287;28;20657;-70
2022/04/04 05:21:40;;;;;;;15.77;9.00;;;0.50;99.90;;;;;;5089856;28;20194;-73
2022/04/04 05:24:08;;;;;;;14.33;8.83;;;0.70;99.90;;;;;;5084299;28;20201;-75
2022/04/04 05:26:36;;;;;;;15.67;9.87;;;0.70;99.90;;;;;;5082302;28;20210;-73
2022/04/04 05:29:03;;;;;;;20.30;10.60;;;0.70;99.90;;;;;;5072017;28;20215;-71
2022/04/04 05:31:30;;;;;;;12.90;8.50;;;0.70;99.90;;;;;;5089448;28;20198;-75
2022/04/04 05:34:04;;;;;;;14.00;8.67;;;0.80;99.90;;;;;;5090903;28;20215;-75
2022/04/04 05:36:33;;;;;;;16.50;9.83;;;0.90;99.90;;;;;;5071326;28;20682;-73
2022/04/04 05:39:01;;;;;;;15.77;8.80;;;1.10;99.90;;;;;;5072776;28;20198;-75
2022/04/04 05:41:27;;;;;;;14.73;8.57;;;1.10;99.90;;;;;;5067501;28;20226;-72
2022/04/04 05:43:54;;;;;;;12.43;8.37;;;1.20;99.90;;;;;;5093653;28;20197;-72
2022/04/04 05:46:21;;;;;;;12.73;8.40;;;1.40;99.90;;;;;;5067551;28;20223;-72
2022/04/04 05:48:48;;;;;;;13.07;8.50;;;1.50;99.90;;;;;;5091084;28;20194;-75
2022/04/04 05:51:16;;;;;;;11.97;8.23;;;1.50;99.90;;;;;;5083620;28;20207;-72
2022/04/04 05:53:44;;;;;;;15.47;8.20;;;1.70;99.90;;;;;;5087884;28;20708;-71
2022/04/04 05:56:11;;;;;;;12.33;8.40;;;1.80;99.90;;;;;;5089355;28;20267;-72
2022/04/04 05:58:38;;;;;;;12.77;8.43;;;1.70;99.90;;;;;;5086260;28;20219;-72
2022/04/04 06:01:04;;;;;;;10.93;7.40;;;1.80;99.90;;;;;;5070299;28;20201;-71
2022/04/04 06:03:31;;;;;;;13.57;7.57;;;1.90;99.90;;;;;;5083368;28;20202;-73
2022/04/04 06:05:58;;;;;;;13.90;8.10;;;1.90;99.90;;;;;;5093381;28;20227;-70
2022/04/04 06:08:24;;;;;;;12.88;8.90;;;1.90;99.90;;;;;;5078970;28;20453;-71
2022/04/04 06:10:51;;;;;;;11.60;8.17;;;2.00;99.90;;;;;;5078055;28;20211;-74
2022/04/04 06:13:19;;;;;;;14.47;8.23;;;2.00;99.90;;;;;;5081009;28;20202;-71
2022/04/04 06:15:47;;;;;;;13.20;8.30;;;2.00;99.90;;;;;;5084615;28;20227;-72
2022/04/04 06:18:15;;;;;;;13.53;8.50;;;2.10;99.90;;;;;;5084959;28;20311;-73
2022/04/04 06:20:42;;;;;;;14.77;8.03;;;2.00;99.90;;;;;;5096278;28;20195;-73
2022/04/04 06:23:11;;;;;;;12.10;8.10;;;2.10;99.90;;;;;;5075062;28;20198;-71
2022/04/04 06:25:39;;;;;;;12.13;7.80;;;2.20;99.90;;;;;;5089629;28;20248;-73
2022/04/04 06:28:06;;;;;;;11.57;7.73;;;2.20;99.90;;;;;;5088236;28;20716;-73
2022/04/04 06:30:34;;;;;;;11.90;7.93;;;2.20;99.90;;;;;;5083592;28;20200;-73
2022/04/04 06:33:04;;;;;;;14.07;7.80;;;2.20;99.90;;;;;;5075956;28;20199;-71
2022/04/04 06:35:31;;;;;;;14.17;8.03;;;2.30;99.90;;;;;;5096989;28;20215;-72
2022/04/04 06:38:00;;;;;;;11.87;7.67;;;2.50;99.90;;;;;;5096450;28;20293;-69
2022/04/04 06:40:27;;;;;;;9.20;7.17;;;2.70;99.90;;;;;;5094355;28;20191;-73
2022/04/04 06:42:56;;;;;;;9.60;7.17;;;2.80;99.90;;;;;;5095504;28;20216;-72
2022/04/04 06:45:23;;;;;;;10.73;7.13;;;2.90;99.90;;;;;;5092646;28;20484;-71
2022/04/04 06:47:51;;;;;;;11.13;8.10;;;3.00;99.90;;;;;;5099517;28;20210;-73
2022/04/04 06:50:18;;;;;;;11.23;7.73;;;3.10;99.90;;;;;;5095481;28;20554;-71
2022/04/04 06:52:45;;;;;;;9.87;7.27;;;3.30;99.90;;;;;;5095389;28;20220;-73
2022/04/04 06:55:32;;;;;;;10.80;7.33;;;3.50;99.90;;;;;;5096970;28;20256;-72
2022/04/04 06:57:58;;;;;;;9.93;7.13;;;3.60;99.90;;;;;;5091754;28;20225;-73
2022/04/04 07:00:25;;;;;;;10.67;7.07;;;3.60;99.90;;;;;;5086722;28;20202;-71
2022/04/04 07:02:53;;;;;;;9.77;6.93;;;3.60;99.90;;;;;;5093671;28;20205;-75
2022/04/04 07:05:20;;;;;;;11.77;7.23;;;3.60;99.90;;;;;;5095645;28;20704;-73
2022/04/04 07:07:47;;;;;;;12.03;7.33;;;3.70;99.90;;;;;;5094725;28;20343;-73
2022/04/04 07:10:14;;;;;;;10.43;7.47;;;3.90;99.90;;;;;;5092720;28;20254;-73
2022/04/04 07:12:42;;;;;;;9.93;7.20;;;3.80;99.90;;;;;;5089973;28;20208;-73
2022/04/04 07:15:13;;;;;;;10.40;7.53;;;3.70;99.90;;;;;;5090732;28;20868;-75
2022/04/04 07:17:42;;;;;;;9.93;7.17;;;3.80;99.90;;;;;;5094825;28;20213;-74
2022/04/04 07:20:10;;;;;;;12.50;6.90;;;3.90;99.90;;;;;;5091683;28;20207;-72
2022/04/04 07:22:42;;;;;;;10.30;7.10;;;4.10;99.90;;;;;;5094778;28;20201;-74
2022/04/04 07:25:10;;;;;;;9.87;6.90;;;4.20;99.90;;;;;;5090229;28;20193;-76
2022/04/04 07:27:40;;;;;;;9.00;6.80;;;4.20;99.90;;;;;;5089140;28;20558;-73
2022/04/04 07:30:11;;;;;;;11.70;7.20;;;4.40;99.90;;;;;;5088159;28;20274;-75
2022/04/04 07:32:39;;;;;;;11.07;7.20;;;4.60;99.90;;;;;;5092852;28;20211;-72
2022/04/04 07:35:11;;;;;;;10.87;7.43;;;4.80;99.90;;;;;;5089884;28;20210;-73
2022/04/04 07:37:42;;;;;;;11.00;7.30;;;4.80;99.90;;;;;;5095109;28;20211;-74
2022/04/04 07:40:14;;;;;;;18.03;6.83;;;4.90;99.90;;;;;;5095354;28;20190;-73
2022/04/04 07:42:42;;;;;;;11.13;6.63;;;5.00;99.90;;;;;;5091972;28;20680;-73
2022/04/04 07:45:10;;;;;;;10.00;6.43;;;5.30;99.90;;;;;;5089789;28;20210;-72
2022/04/04 07:47:38;;;;;;;9.37;6.60;;;5.50;99.90;;;;;;5095963;28;20605;-71
2022/04/04 07:50:08;;;;;;;9.23;6.40;;;5.50;99.90;;;;;;5093686;28;20310;-72
2022/04/04 07:52:35;;;;;;;11.07;6.40;;;5.60;99.90;;;;;;5097498;28;20193;-70
2022/04/04 07:55:03;;;;;;;10.87;6.83;;;5.60;99.90;;;;;;5089240;28;20637;-71
2022/04/04 07:57:29;;;;;;;10.80;6.63;;;5.60;99.90;;;;;;5088045;28;20210;-72
2022/04/04 07:59:56;;;;;;;8.07;6.00;;;5.70;99.90;;;;;;5096075;28;20197;-75
2022/04/04 08:02:23;;;;;;;9.60;6.37;;;5.60;99.90;;;;;;5093848;28;20203;-70
2022/04/04 08:04:50;;;;;;;9.13;6.60;;;5.80;99.90;;;;;;5094435;28;20655;-71
2022/04/04 08:07:19;;;;;;;10.20;6.30;;;6.10;99.90;;;;;;5091287;28;20203;-74
2022/04/04 08:09:47;;;;;;;10.50;6.83;;;6.30;99.90;;;;;;5073059;28;20200;-71
2022/04/04 08:12:13;;;;;;;10.67;6.47;;;6.40;99.90;;;;;;5082358;28;20191;-71
2022/04/04 08:14:40;;;;;;;11.57;6.80;;;6.60;99.90;;;;;;5085619;28;20866;-70
2022/04/04 08:17:08;;;;;;;10.73;6.57;;;6.70;99.90;;;;;;5092498;28;20223;-73
2022/04/04 08:19:35;;;;;;;8.67;6.27;;;6.70;99.90;;;;;;5095100;28;20197;-72
2022/04/04 08:22:02;;;;;;;8.53;6.13;;;7.00;99.90;;;;;;5098443;28;20197;-72
2022/04/04 08:24:30;;;;;;;8.40;5.87;;;6.80;99.90;;;;;;5093961;28;20199;-72
2022/04/04 08:26:56;;;;;;;10.97;6.57;;;6.70;99.90;;;;;;5090230;28;20792;-72
2022/04/04 08:29:23;;;;;;;7.40;5.50;;;6.60;99.90;;;;;;5093477;28;20197;-74
2022/04/04 08:31:50;;;;;;;10.13;5.67;;;6.70;99.90;;;;;;5087910;28;20509;-71
2022/04/04 08:34:17;;;;;;;7.17;5.30;;;6.90;99.90;;;;;;5090907;28;20204;-72
2022/04/04 08:36:43;;;;;;;9.80;6.00;;;7.20;99.90;;;;;;5092626;28;20214;-72
2022/04/04 08:39:10;;;;;;;7.73;5.17;;;7.30;99.90;;;;;;5090291;28;20221;-73
2022/04/04 08:41:38;;;;;;;7.40;5.10;;;7.40;99.90;;;;;;5083919;28;20698;-71
2022/04/04 08:44:05;;;;;;;8.77;5.13;;;7.70;99.90;;;;;;5078928;28;20186;-71
2022/04/04 08:46:33;;;;;;;7.10;5.00;;;7.90;99.90;;;;;;5068560;28;20208;-69
2022/04/04 08:49:04;;;;;;;12.13;5.60;;;7.80;99.90;;;;;;5093077;28;20206;-70
2022/04/04 08:51:31;;;;;;;7.27;5.13;;;8.20;99.90;;;;;;5087618;28;20198;-73
2022/04/04 08:53:58;;;;;;;7.53;5.20;;;8.50;99.90;;;;;;5094527;28;20209;-73
2022/04/04 08:56:26;;;;;;;6.80;5.20;;;8.70;99.90;;;;;;5096754;28;20232;-71
2022/04/04 08:58:54;;;;;;;8.47;5.27;;;8.70;99.90;;;;;;5090755;28;20221;-73
2022/04/04 09:01:22;;;;;;;6.97;5.10;;;8.40;99.90;;;;;;5080371;28;20187;-73
2022/04/04 09:04:13;;;;;;;7.43;5.20;;;8.60;99.90;;;;;;5095236;28;21695;-71
2022/04/04 09:06:48;;;;;;;7.40;5.07;;;8.60;99.90;;;;;;5090227;28;20794;-74
2022/04/04 09:09:25;;;;;;;8.93;4.97;;;8.70;99.90;;;;;;5092416;28;20201;-73
2022/04/04 09:12:07;;;;;;;7.53;4.97;;;8.90;99.90;;;;;;5093518;28;20272;-76
2022/04/04 09:14:57;;;;;;;8.27;5.37;;;8.90;99.90;;;;;;5086489;28;20247;-75
2022/04/04 09:17:30;;;;;;;7.80;5.10;;;9.10;99.90;;;;;;5058196;28;20234;-72
2022/04/04 09:19:58;;;;;;;7.23;5.17;;;9.20;99.90;;;;;;5081637;28;20198;-74
2022/04/04 09:22:25;;;;;;;7.80;4.87;;;9.30;99.90;;;;;;5073261;28;20284;-72
2022/04/04 09:24:59;;;;;;;6.67;5.03;;;9.50;99.90;;;;;;5091625;28;20226;-72
2022/04/04 09:27:29;;;;;;;9.80;5.80;;;9.60;99.90;;;;;;5094994;28;20197;-70
2022/04/04 09:30:21;;;;;;;8.23;5.60;;;9.90;99.90;;;;;;5092953;28;20216;-70
2022/04/04 09:32:49;;;;;;;7.97;5.20;;;10.10;99.90;;;;;;5082535;28;20200;-70
2022/04/04 09:35:18;;;;;;;7.37;5.47;;;10.40;99.90;;;;;;5091774;28;20208;-71
2022/04/04 09:37:47;;;;;;;7.00;5.73;;;10.70;99.90;;;;;;5089275;28;22450;-73
2022/04/04 09:40:16;;;;;;;7.33;5.50;;;10.80;99.90;;;;;;5089842;28;20204;-71
2022/04/04 09:43:03;;;;;;;8.17;5.53;;;10.90;99.90;;;;;;5090212;28;20202;-71
2022/04/04 09:45:30;;;;;;;9.30;6.37;;;10.70;99.90;;;;;;5085216;28;20213;-73
2022/04/04 09:48:04;;;;;;;10.87;5.47;;;10.70;99.90;;;;;;5095288;28;20192;-72
2022/04/04 09:50:42;;;;;;;7.47;5.17;;;11.00;99.90;;;;;;5094525;28;20204;-70
2022/04/04 09:53:17;;;;;;;7.00;4.37;;;11.20;99.90;;;;;;5094491;28;20274;-71
2022/04/04 09:55:56;;;;;;;6.17;4.87;;;10.90;99.90;;;;;;5093110;28;20252;-71
2022/04/04 09:58:26;;;;;;;6.80;4.53;;;11.20;99.90;;;;;;5095600;28;20271;-72
2022/04/04 10:00:55;;;;;;;5.90;4.53;;;11.00;99.90;;;;;;5091575;28;20204;-71
2022/04/04 10:03:23;;;;;;;6.43;4.70;;;11.00;99.90;;;;;;5098117;28;20226;-74
2022/04/04 10:05:56;;;;;;;6.37;4.50;;;11.10;99.90;;;;;;5096033;28;20218;-72
2022/04/04 10:08:26;;;;;;;5.60;4.27;;;10.60;99.90;;;;;;5097528;28;20640;-72
2022/04/04 10:10:56;;;;;;;6.33;4.40;;;10.80;99.90;;;;;;5098035;28;20704;-72
2022/04/04 10:13:24;;;;;;;5.50;4.50;;;10.80;99.90;;;;;;5075690;28;20678;-72
2022/04/04 10:15:53;;;;;;;4.57;4.07;;;11.20;99.90;;;;;;5096047;28;20214;-71
2022/04/04 10:18:20;;;;;;;6.07;4.13;;;11.50;99.90;;;;;;5096299;28;20221;-71
2022/04/04 10:20:53;;;;;;;5.37;4.50;;;11.20;99.90;;;;;;5096509;28;20202;-71
2022/04/04 10:23:22;;;;;;;7.10;4.80;;;11.50;99.90;;;;;;5080547;28;20673;-70
2022/04/04 10:25:50;;;;;;;6.10;4.43;;;12.00;99.90;;;;;;5093917;28;20302;-73
2022/04/04 10:28:29;;;;;;;6.50;4.83;;;11.80;99.90;;;;;;5097613;28;20206;-75
2022/04/04 10:31:09;;;;;;;6.33;4.87;;;11.90;99.90;;;;;;5094482;28;20200;-70
2022/04/04 10:33:36;;;;;;;6.20;4.60;;;11.80;99.90;;;;;;5098248;28;20194;-73
2022/04/04 10:36:10;;;;;;;6.90;5.13;;;11.40;99.90;;;;;;5094896;28;20220;-73
2022/04/04 10:38:38;;;;;;;5.50;4.47;;;11.00;99.90;;;;;;5099596;28;20217;-70
2022/04/04 10:41:08;;;;;;;7.23;4.93;;;11.20;99.90;;;;;;5096427;28;20205;-72
2022/04/04 10:43:39;;;;;;;7.17;4.57;;;11.30;99.90;;;;;;5099938;28;20194;-72
2022/04/04 10:46:14;;;;;;;6.47;4.70;;;11.70;99.90;;;;;;5093484;28;20215;-71
2022/04/04 10:48:47;;;;;;;6.33;4.57;;;11.80;99.90;;;;;;5096226;28;20307;-71
2022/04/04 10:51:20;;;;;;;6.73;4.93;;;11.30;99.90;;;;;;5089872;28;20283;-73
2022/04/04 10:53:49;;;;;;;6.47;4.50;;;11.30;99.90;;;;;;5099758;28;20200;-72
2022/04/04 10:56:21;;;;;;;4.77;4.30;;;11.40;99.90;;;;;;5092301;28;20217;-72
2022/04/04 10:58:49;;;;;;;6.53;4.83;;;11.20;99.90;;;;;;5089184;28;20220;-72
2022/04/04 11:01:19;;;;;;;6.80;4.60;;;11.30;99.90;;;;;;5092572;28;20194;-72
2022/04/04 11:03:48;;;;;;;6.93;4.03;;;11.40;99.90;;;;;;5089791;28;20199;-75
2022/04/04 11:09:16;;;;;;;6.13;4.90;;;10.90;99.90;;;;;;5090563;28;20215;-73
2022/04/04 11:11:49;;;;;;;6.47;4.60;;;10.70;99.90;;;;;;5074098;28;20292;-76
2022/04/04 11:14:17;;;;;;;5.33;4.40;;;10.60;99.90;;;;;;5095063;28;20204;-73
2022/04/04 11:17:06;;;;;;;9.33;5.10;;;10.50;99.90;;;;;;5093781;28;20212;-73
2022/04/04 11:19:49;;;;;;;8.10;4.60;;;10.60;99.90;;;;;;5095828;28;20221;-73
2022/04/04 11:22:18;;;;;;;5.03;4.30;;;11.00;99.90;;;;;;5096903;28;20676;-74
2022/04/04 11:24:54;;;;;;;6.37;4.80;;;11.50;99.90;;;;;;5095189;28;20364;-72
2022/04/04 11:27:23;;;;;;;5.67;4.47;;;11.70;99.90;;;;;;5097567;28;20683;-73
2022/04/04 11:29:50;;;;;;;5.60;4.10;;;11.60;99.80;;;;;;5097055;28;20202;-72
2022/04/04 11:32:31;;;;;;;5.33;3.70;;;11.80;99.90;;;;;;5094424;28;20195;-73
2022/04/04 11:35:01;;;;;;;6.83;4.03;;;11.90;99.80;;;;;;5093314;28;20692;-69
2022/04/04 11:37:29;;;;;;;5.47;4.30;;;12.00;99.50;;;;;;5088584;28;20200;-73
2022/04/04 11:40:03;;;;;;;6.67;4.10;;;12.30;99.50;;;;;;5090671;28;20223;-73
2022/04/04 11:42:31;;;;;;;4.87;4.03;;;12.60;99.80;;;;;;5094506;28;20258;-72
2022/04/04 11:44:59;;;;;;;4.83;3.97;;;12.80;98.90;;;;;;5090427;28;20196;-69
2022/04/04 11:47:27;;;;;;;6.13;4.67;;;12.80;98.90;;;;;;5096360;28;20197;-71
2022/04/04 11:49:58;;;;;;;8.17;4.30;;;12.20;98.70;;;;;;5094344;28;20209;-72
2022/04/04 11:52:26;;;;;;;7.80;4.67;;;12.30;99.90;;;;;;5091986;28;20209;-73
2022/04/04 11:54:53;;;;;;;6.50;4.53;;;12.20;99.60;;;;;;5094846;28;20212;-71
2022/04/04 11:57:24;;;;;;;6.17;4.43;;;12.40;99.10;;;;;;5092611;28;20549;-72
2022/04/04 11:59:51;;;;;;;7.60;4.83;;;12.30;98.50;;;;;;5093494;28;20711;-70
2022/04/04 12:02:23;;;;;;;10.17;4.67;;;11.70;98.80;;;;;;5092238;28;20200;-71
2022/04/04 12:04:50;;;;;;;7.00;4.77;;;11.90;99.50;;;;;;5093414;28;20194;-74
2022/04/04 12:07:17;;;;;;;5.10;4.30;;;12.20;99.10;;;;;;5073936;28;20204;-74
2022/04/04 12:09:51;;;;;;;5.57;4.57;;;12.30;98.70;;;;;;5075848;28;20212;-73
2022/04/04 12:12:18;;;;;;;4.30;3.90;;;12.00;98.90;;;;;;5074621;28;20226;-75
2022/04/04 12:14:47;;;;;;;11.97;6.57;;;12.30;98.80;;;;;;5091411;28;20207;-72
2022/04/04 12:17:14;;;;;;;6.90;4.50;;;12.10;98.20;;;;;;5094140;28;20218;-75
2022/04/04 12:19:45;;;;;;;4.47;4.07;;;11.90;98.70;;;;;;5089969;28;20628;-73
2022/04/04 12:25:06;;;;;;;6.80;4.60;;;11.70;99.10;;;;;;5092271;28;20199;-71
2022/04/04 12:27:33;;;;;;;5.20;4.40;;;11.40;99.10;;;;;;5093448;28;20308;-73
2022/04/04 12:30:04;;;;;;;7.07;4.50;;;11.40;99.00;;;;;;5092640;28;20267;-75
2022/04/04 12:32:38;;;;;;;6.53;4.17;;;11.50;99.10;;;;;;5070882;28;20286;-75
2022/04/04 12:35:06;;;;;;;7.33;3.97;;;11.40;98.80;;;;;;5091566;28;20220;-74
2022/04/04 12:37:38;;;;;;;9.83;5.43;;;11.60;98.40;;;;;;5092143;28;20213;-72
2022/04/04 12:40:20;;;;;;;5.83;4.50;;;11.60;98.70;;;;;;5094319;28;20219;-74
2022/04/04 12:42:49;;;;;;;4.70;3.80;;;11.30;98.30;;;;;;5090841;28;20215;-74
2022/04/04 12:45:17;;;;;;;5.57;3.87;;;11.50;99.20;;;;;;5088680;28;20218;-75
2022/04/04 12:48:07;;;;;;;4.90;4.20;;;11.70;98.40;;;;;;5068629;28;20204;-73
2022/04/04 12:50:48;;;;;;;4.70;3.90;;;11.80;97.90;;;;;;5085767;28;20211;-72
2022/04/04 12:53:17;;;;;;;7.03;4.07;;;11.50;98.20;;;;;;5089317;28;20200;-72
2022/04/04 12:56:06;;;;;;;5.03;4.47;;;11.50;99.10;;;;;;5091188;28;20281;-73
2022/04/04 12:58:34;;;;;;;7.30;4.57;;;11.50;99.90;;;;;;5089408;28;20301;-71
2022/04/04 13:01:15;;;;;;;7.97;4.27;;;11.50;99.50;;;;;;5090795;28;20189;-70
2022/04/04 13:03:51;;;;;;;6.87;4.50;;;11.50;99.60;;;;;;5074646;28;20185;-72
2022/04/04 13:06:19;;;;;;;5.47;4.40;;;11.30;99.90;;;;;;5088016;28;20224;-72